createdAt,value
2018-12-13T00:01:38.373Z,63.13
2018-12-13T00:04:08.188Z,64.82
2018-12-13T00:06:36.784Z,68.25
2018-12-13T00:09:06.746Z,61.00
2018-12-13T00:11:35.356Z,58.15
2018-12-13T00:14:03.940Z,55.25
2018-12-13T00:16:32.823Z,56.30
2018-12-13T00:19:02.120Z,52.17
2018-12-13T00:21:31.573Z,56.45
2018-12-13T00:24:00.287Z,53.87
2018-12-13T00:26:28.914Z,54.18
2018-12-13T00:28:57.829Z,54.73
2018-12-13T00:31:26.340Z,54.93
2018-12-13T00:33:54.857Z,53.17
2018-12-13T00:36:23.924Z,57.00
2018-12-13T00:38:52.571Z,54.25
2018-12-13T00:41:21.233Z,51.63
2018-12-13T00:43:49.728Z,52.73
2018-12-13T00:46:18.910Z,53.23
2018-12-13T00:48:47.400Z,51.98
2018-12-13T00:51:15.924Z,52.30
2018-12-13T00:53:46.631Z,54.23
2018-12-13T00:56:15.317Z,53.68
2018-12-13T00:58:43.886Z,50.10
2018-12-13T01:01:12.482Z,51.55
2018-12-13T01:03:42.500Z,52.30
2018-12-13T01:06:11.199Z,54.27
2018-12-13T01:08:39.727Z,51.92
2018-12-13T01:11:09.141Z,53.87
2018-12-13T01:13:39.211Z,57.20
2018-12-13T01:16:09.933Z,56.65
2018-12-13T01:18:38.655Z,56.88
2018-12-13T01:21:08.300Z,56.98
2018-12-13T01:23:37.406Z,58.00
2018-12-13T01:26:05.954Z,55.98
2018-12-13T01:28:35.439Z,55.88
2018-12-13T01:31:03.908Z,53.20
2018-12-13T01:33:32.427Z,52.65
2018-12-13T01:36:01.750Z,49.38
2018-12-13T01:38:30.311Z,49.77
2018-12-13T01:40:58.903Z,51.50
2018-12-13T01:43:27.470Z,55.78
2018-12-13T01:45:55.965Z,56.13
2018-12-13T01:48:25.430Z,52.15
2018-12-13T01:50:54.141Z,54.27
2018-12-13T01:53:22.913Z,49.95
2018-12-13T01:55:51.961Z,53.42
2018-12-13T01:58:20.577Z,55.63
2018-12-13T02:00:49.176Z,55.05
2018-12-13T02:03:18.576Z,52.20
2018-12-13T02:05:47.221Z,56.23
2018-12-13T02:08:16.467Z,58.35
2018-12-13T02:10:44.958Z,58.98
2018-12-13T02:13:14.001Z,60.98
2018-12-13T02:15:42.625Z,64.20
2018-12-13T02:18:11.137Z,61.75
2018-12-13T02:20:40.413Z,60.92
2018-12-13T02:23:08.985Z,61.15
2018-12-13T02:25:37.582Z,59.80
2018-12-13T02:28:06.496Z,62.53
2018-12-13T02:30:35.174Z,63.15
2018-12-13T02:33:03.675Z,59.48
2018-12-13T02:35:32.697Z,56.15
2018-12-13T02:38:02.419Z,57.15
2018-12-13T02:40:30.994Z,62.00
2018-12-13T02:42:59.602Z,65.55
2018-12-13T02:45:28.216Z,56.33
2018-12-13T02:47:56.685Z,57.70
2018-12-13T02:50:25.210Z,55.88
2018-12-13T02:52:53.800Z,62.65
2018-12-13T02:55:22.303Z,59.42
2018-12-13T02:57:50.855Z,59.60
2018-12-13T03:00:19.440Z,59.77
2018-12-13T03:02:48.110Z,62.88
2018-12-13T03:05:18.182Z,59.67
2018-12-13T03:07:46.746Z,59.65
2018-12-13T03:10:15.348Z,61.98
2018-12-13T03:12:43.955Z,60.28
2018-12-13T03:15:12.383Z,58.23
2018-12-13T03:17:41.060Z,57.75
2018-12-13T03:20:09.613Z,59.15
2018-12-13T03:22:40.357Z,60.90
2018-12-13T03:25:08.957Z,60.25
2018-12-13T03:27:37.600Z,60.63
2018-12-13T03:30:06.345Z,59.75
2018-12-13T03:32:34.911Z,62.03
2018-12-13T03:35:03.762Z,62.05
2018-12-13T03:37:32.405Z,61.73
2018-12-13T03:40:02.294Z,62.45
2018-12-13T03:42:30.928Z,64.47
2018-12-13T03:44:59.574Z,63.33
2018-12-13T03:47:28.135Z,61.80
2018-12-13T03:49:56.753Z,64.53
2018-12-13T03:52:26.063Z,62.73
2018-12-13T03:54:54.622Z,64.87
2018-12-13T03:57:24.154Z,61.05
2018-12-13T03:59:52.861Z,66.12
2018-12-13T04:02:21.309Z,63.98
2018-12-13T04:04:49.876Z,66.37
2018-12-13T04:07:18.467Z,68.55
2018-12-13T04:09:47.045Z,64.25
2018-12-13T04:12:15.651Z,65.47
2018-12-13T04:14:45.374Z,67.47
2018-12-13T04:17:14.023Z,67.15
2018-12-13T04:19:42.736Z,66.30
2018-12-13T04:22:11.387Z,67.90
2018-12-13T04:24:39.990Z,66.53
2018-12-13T04:27:08.679Z,64.77
2018-12-13T04:29:37.116Z,63.28
2018-12-13T04:32:06.013Z,62.73
2018-12-13T04:34:36.252Z,63.45
2018-12-13T04:37:04.840Z,63.65
2018-12-13T04:39:33.429Z,65.00
2018-12-13T04:42:03.290Z,61.83
2018-12-13T04:44:31.885Z,66.10
2018-12-13T04:47:00.485Z,61.33
2018-12-13T04:49:30.340Z,62.50
2018-12-13T04:51:59.001Z,63.83
2018-12-13T04:54:27.567Z,57.78
2018-12-13T04:56:56.143Z,57.88
2018-12-13T04:59:25.874Z,58.85
2018-12-13T05:01:54.468Z,62.50
2018-12-13T05:04:23.144Z,62.20
2018-12-13T05:06:52.007Z,64.30
2018-12-13T05:09:20.525Z,63.85
2018-12-13T05:11:50.519Z,65.78
2018-12-13T05:14:19.286Z,67.32
2018-12-13T05:16:49.040Z,66.97
2018-12-13T05:19:17.559Z,66.50
2018-12-13T05:21:46.182Z,63.55
2018-12-13T05:24:15.989Z,70.30
2018-12-13T05:26:44.574Z,62.83
2018-12-13T05:29:13.144Z,72.20
2018-12-13T05:31:41.602Z,67.45
2018-12-13T05:34:10.236Z,70.97
2018-12-13T05:36:38.595Z,64.10
2018-12-13T05:39:08.710Z,68.87
2018-12-13T05:41:38.103Z,66.75
2018-12-13T05:44:06.692Z,63.52
2018-12-13T05:46:35.277Z,65.12
2018-12-13T05:49:04.685Z,68.25
2018-12-13T05:51:34.587Z,64.97
2018-12-13T05:54:03.327Z,67.75
2018-12-13T05:56:32.860Z,68.17
2018-12-13T05:59:02.499Z,69.40
2018-12-13T06:01:32.384Z,69.90
2018-12-13T06:04:00.982Z,66.33
2018-12-13T06:06:30.880Z,67.20
2018-12-13T06:09:01.058Z,70.75
2018-12-13T06:11:30.315Z,70.03
2018-12-13T06:13:58.981Z,65.72
2018-12-13T06:16:28.737Z,70.35
2018-12-13T06:18:57.285Z,64.47
2018-12-13T06:21:26.060Z,67.27
2018-12-13T06:23:55.347Z,68.12
2018-12-13T06:26:24.747Z,67.75
2018-12-13T06:28:54.289Z,70.55
2018-12-13T06:31:23.449Z,68.17
2018-12-13T06:33:53.169Z,74.32
2018-12-13T06:36:22.701Z,68.75
2018-12-13T06:38:52.390Z,69.75
2018-12-13T06:41:21.713Z,72.27
2018-12-13T06:43:52.350Z,68.70
2018-12-13T06:46:21.662Z,69.42
2018-12-13T06:48:51.559Z,77.58
2018-12-13T06:51:21.588Z,75.40
2018-12-13T06:53:50.627Z,78.20
2018-12-13T06:56:20.154Z,71.70
2018-12-13T06:58:49.898Z,73.02
2018-12-13T07:01:19.902Z,72.82
2018-12-13T07:03:49.553Z,74.97
2018-12-13T07:06:18.802Z,70.20
2018-12-13T07:08:47.794Z,75.37
2018-12-13T07:11:17.143Z,73.62
2018-12-13T07:13:46.830Z,71.92
2018-12-13T07:16:16.315Z,72.10
2018-12-13T07:18:45.787Z,69.72
2018-12-13T07:21:15.028Z,76.02
2018-12-13T07:23:44.170Z,73.55
2018-12-13T07:26:13.597Z,71.80
2018-12-13T07:28:42.931Z,74.12
2018-12-13T07:31:12.275Z,73.78
2018-12-13T07:33:41.898Z,74.03
2018-12-13T07:36:12.009Z,71.92
2018-12-13T07:38:41.230Z,77.65
2018-12-13T07:41:10.511Z,140.37
2018-12-13T07:43:41.183Z,109.50
2018-12-13T07:46:10.682Z,240.87
2018-12-13T07:48:39.801Z,268.80
2018-12-13T07:51:08.787Z,183.27
2018-12-13T07:53:37.960Z,195.22
2018-12-13T07:56:06.858Z,160.60
2018-12-13T07:58:35.800Z,181.60
2018-12-13T08:01:05.238Z,132.63
2018-12-13T08:03:34.450Z,125.92
2018-12-13T08:06:03.303Z,117.47
2018-12-13T08:08:32.023Z,112.68
2018-12-13T08:11:02.622Z,103.95
2018-12-13T08:13:31.213Z,100.45
2018-12-13T08:15:59.785Z,92.45
2018-12-13T08:18:29.699Z,86.10
2018-12-13T08:20:58.288Z,85.47
2018-12-13T08:23:27.898Z,87.37
2018-12-13T08:25:56.531Z,88.05
2018-12-13T08:28:25.148Z,81.20
2018-12-13T08:30:54.606Z,90.45
2018-12-13T08:33:23.215Z,85.05
2018-12-13T08:35:51.771Z,82.90
2018-12-13T08:38:27.115Z,86.20
2018-12-13T08:40:53.515Z,96.12
2018-12-13T08:43:22.826Z,154.18
2018-12-13T08:45:51.367Z,119.97
2018-12-13T08:48:20.114Z,191.12
2018-12-13T08:50:49.742Z,399.77
2018-12-13T08:53:19.226Z,150.25
2018-12-13T08:55:48.803Z,165.92
2018-12-13T08:58:17.716Z,145.85
2018-12-13T09:00:47.752Z,137.60
2018-12-13T09:03:16.357Z,120.87
2018-12-13T09:05:44.894Z,112.85
2018-12-13T09:08:13.431Z,112.57
2018-12-13T09:10:43.053Z,127.82
2018-12-13T09:13:12.208Z,163.95
2018-12-13T09:15:41.753Z,187.43
2018-12-13T09:18:12.214Z,164.88
2018-12-13T09:20:41.998Z,128.95
2018-12-13T09:23:11.007Z,121.75
2018-12-13T09:25:40.686Z,108.87
2018-12-13T09:28:09.230Z,112.28
2018-12-13T09:30:37.730Z,102.10
2018-12-13T09:33:10.118Z,97.92
2018-12-13T09:35:42.209Z,100.92
2018-12-13T09:38:13.569Z,98.47
2018-12-13T09:40:44.793Z,100.92
2018-12-13T09:43:16.404Z,101.65
2018-12-13T09:45:46.015Z,97.53
2018-12-13T09:48:18.245Z,88.87
2018-12-13T09:50:49.037Z,92.62
2018-12-13T09:53:18.370Z,90.57
2018-12-13T09:55:49.472Z,87.00
2018-12-13T09:58:19.976Z,84.77
2018-12-13T10:00:49.832Z,80.28
2018-12-13T10:03:23.633Z,92.45
2018-12-13T10:05:55.691Z,85.45
2018-12-13T10:08:27.203Z,83.10
2018-12-13T10:11:01.244Z,76.22
2018-12-13T10:13:33.051Z,78.80
2018-12-13T10:16:06.331Z,78.12
2018-12-13T10:18:37.976Z,76.85
2018-12-13T10:21:07.536Z,74.47
2018-12-13T10:23:40.486Z,78.20
2018-12-13T10:26:13.801Z,80.00
2018-12-13T10:28:45.281Z,75.83
2018-12-13T10:31:15.066Z,78.12
2018-12-13T10:33:45.479Z,76.02
2018-12-13T10:36:15.917Z,75.75
2018-12-13T10:38:52.765Z,71.00
2018-12-13T10:41:23.449Z,70.78
2018-12-13T10:43:54.447Z,75.97
2018-12-13T10:46:25.426Z,73.12
2018-12-13T10:49:00.741Z,70.55
2018-12-13T10:51:30.173Z,78.28
2018-12-13T10:54:00.197Z,81.10
2018-12-13T10:56:32.128Z,71.95
2018-12-13T10:59:01.516Z,72.22
2018-12-13T11:01:37.104Z,68.62
2018-12-13T11:04:07.356Z,68.35
2018-12-13T11:06:35.908Z,67.40
2018-12-13T11:09:06.717Z,63.65
2018-12-13T11:11:37.806Z,61.00
2018-12-13T11:14:08.382Z,58.65
2018-12-13T11:16:41.666Z,59.38
2018-12-13T11:19:11.947Z,59.75
2018-12-13T11:21:43.218Z,58.35
2018-12-13T11:24:14.196Z,57.75
2018-12-13T11:26:45.868Z,55.12
2018-12-13T11:29:28.462Z,55.80
2018-12-13T11:31:57.026Z,54.50
2018-12-13T11:34:27.672Z,52.60
2018-12-13T11:37:01.631Z,46.60
2018-12-13T11:39:30.308Z,47.70
2018-12-13T11:42:00.361Z,47.78
2018-12-13T11:44:30.865Z,44.58
2018-12-13T11:47:00.187Z,44.55
2018-12-13T11:49:30.598Z,48.60
2018-12-13T11:52:02.119Z,48.28
2018-12-13T11:54:43.837Z,47.45
2018-12-13T11:57:17.389Z,48.85
2018-12-13T11:59:47.759Z,48.00
2018-12-13T12:02:23.727Z,49.40
2018-12-13T12:04:49.569Z,52.10
2018-12-13T12:07:18.335Z,49.85
2018-12-13T12:09:47.425Z,51.68
2018-12-13T12:12:20.838Z,49.33
2018-12-13T12:14:50.564Z,49.77
2018-12-13T12:17:20.207Z,51.95
2018-12-13T12:19:52.881Z,46.18
2018-12-13T12:22:23.386Z,51.95
2018-12-13T12:24:52.936Z,52.43
2018-12-13T12:27:23.496Z,57.23
2018-12-13T12:29:53.652Z,52.67
2018-12-13T12:32:24.773Z,50.92
2018-12-13T12:34:55.243Z,48.35
2018-12-13T12:37:27.131Z,54.27
2018-12-13T12:39:57.564Z,50.92
2018-12-13T12:42:30.469Z,50.12
2018-12-13T12:45:01.048Z,60.50
2018-12-13T12:47:30.481Z,54.58
2018-12-13T12:50:01.252Z,51.10
2018-12-13T12:52:31.603Z,50.00
2018-12-13T12:55:05.146Z,50.43
2018-12-13T12:57:36.820Z,51.37
2018-12-13T13:00:08.662Z,51.60
2018-12-13T13:02:40.769Z,56.37
2018-12-13T13:05:10.326Z,54.85
2018-12-13T13:07:40.819Z,52.80
2018-12-13T13:10:11.659Z,54.48
2018-12-13T13:12:41.992Z,54.63
2018-12-13T13:15:11.402Z,54.25
2018-12-13T13:17:42.257Z,56.60
2018-12-13T13:20:14.699Z,54.42
2018-12-13T13:22:44.297Z,56.80
2018-12-13T13:25:16.246Z,56.23
2018-12-13T13:27:48.946Z,55.50
2018-12-13T13:30:19.283Z,56.42
2018-12-13T13:32:51.453Z,50.28
2018-12-13T13:35:21.621Z,53.85
2018-12-13T13:37:51.137Z,51.73
2018-12-13T13:40:23.300Z,51.50
2018-12-13T13:42:54.147Z,52.62
2018-12-13T13:45:28.886Z,53.00
2018-12-13T13:47:59.693Z,52.75
2018-12-13T13:50:31.234Z,53.23
2018-12-13T13:53:01.859Z,54.33
2018-12-13T13:55:34.011Z,51.88
2018-12-13T13:58:04.805Z,55.80
2018-12-13T14:00:34.283Z,53.48
2018-12-13T14:03:05.951Z,57.33
2018-12-13T14:05:35.703Z,50.55
2018-12-13T14:08:05.854Z,53.15
2018-12-13T14:10:36.604Z,52.08
2018-12-13T14:13:09.217Z,51.23
2018-12-13T14:15:40.453Z,50.90
2018-12-13T14:18:13.402Z,47.43
2018-12-13T14:20:44.482Z,52.73
2018-12-13T14:23:15.540Z,52.58
2018-12-13T14:25:47.800Z,51.50
2018-12-13T14:28:17.977Z,52.35
2018-12-13T14:30:48.225Z,54.70
2018-12-13T14:33:17.399Z,50.33
2018-12-13T14:35:48.768Z,48.78
2018-12-13T14:38:19.641Z,49.60
2018-12-13T14:40:51.488Z,43.92
2018-12-13T14:43:21.404Z,44.65
2018-12-13T14:45:50.649Z,43.63
2018-12-13T14:48:23.530Z,43.95
2018-12-13T14:50:54.092Z,42.67
2018-12-13T14:53:22.833Z,43.68
2018-12-13T14:55:55.332Z,43.85
2018-12-13T14:58:28.782Z,39.27
2018-12-13T15:01:00.106Z,43.95
2018-12-13T15:03:30.376Z,43.15
2018-12-13T15:06:00.575Z,43.65
2018-12-13T15:08:31.339Z,42.50
2018-12-13T15:11:03.910Z,43.20
2018-12-13T15:13:40.430Z,46.23
2018-12-13T15:16:11.881Z,45.00
2018-12-13T15:18:41.485Z,44.55
2018-12-13T15:21:13.180Z,42.05
2018-12-13T15:23:43.738Z,43.55
2018-12-13T15:26:14.016Z,42.23
2018-12-13T15:28:42.678Z,43.52
2018-12-13T15:31:13.688Z,46.28
2018-12-13T15:33:44.349Z,47.08
2018-12-13T15:36:15.043Z,48.28
2018-12-13T15:38:44.393Z,49.25
2018-12-13T15:41:16.204Z,44.93
2018-12-13T15:43:51.220Z,42.27
2018-12-13T15:46:21.641Z,47.78
2018-12-13T15:48:51.517Z,49.80
2018-12-13T15:51:23.416Z,47.48
2018-12-13T15:53:54.224Z,51.25
2018-12-13T15:56:23.649Z,48.73
2018-12-13T15:58:54.344Z,45.35
2018-12-13T16:01:26.981Z,49.35
2018-12-13T16:03:58.468Z,45.78
2018-12-13T16:06:28.130Z,47.15
2018-12-13T16:08:59.521Z,51.18
2018-12-13T16:11:30.690Z,50.92
2018-12-13T16:14:03.471Z,49.53
2018-12-13T16:16:35.615Z,50.28
2018-12-13T16:19:08.079Z,52.03
2018-12-13T16:21:39.914Z,50.83
2018-12-13T16:24:11.410Z,53.65
2018-12-13T16:26:43.291Z,50.60
2018-12-13T16:29:14.493Z,50.88
2018-12-13T16:31:46.700Z,50.08
2018-12-13T16:34:17.167Z,55.78
2018-12-13T16:36:48.316Z,51.73
2018-12-13T16:39:22.799Z,54.73
2018-12-13T16:41:53.260Z,48.70
2018-12-13T16:44:27.664Z,53.55
2018-12-13T16:47:00.873Z,53.73
2018-12-13T16:49:31.919Z,50.30
2018-12-13T16:52:03.149Z,56.65
2018-12-13T16:54:33.847Z,49.77
2018-12-13T16:57:03.339Z,52.15
2018-12-13T16:59:33.495Z,48.38
2018-12-13T17:02:04.771Z,48.17
2018-12-13T17:04:35.764Z,49.45
2018-12-13T17:07:08.086Z,53.95
2018-12-13T17:09:38.971Z,47.55
2018-12-13T17:12:12.021Z,47.73
2018-12-13T17:14:43.309Z,48.48
2018-12-13T17:17:12.398Z,45.15
2018-12-13T17:19:41.364Z,43.08
2018-12-13T17:22:13.131Z,40.63
2018-12-13T17:24:42.280Z,43.35
2018-12-13T17:27:11.606Z,42.08
2018-12-13T17:29:41.311Z,39.73
2018-12-13T17:32:10.932Z,42.30
2018-12-13T17:34:40.201Z,39.20
2018-12-13T17:37:09.050Z,41.58
2018-12-13T17:39:37.881Z,42.15
2018-12-13T17:42:07.068Z,43.25
2018-12-13T17:44:36.748Z,42.10
2018-12-13T17:47:05.945Z,42.83
2018-12-13T17:49:36.346Z,43.00
2018-12-13T17:52:05.643Z,40.38
2018-12-13T17:54:35.151Z,43.17
2018-12-13T17:57:05.299Z,42.73
2018-12-13T17:59:34.014Z,42.93
2018-12-13T18:02:04.193Z,43.52
2018-12-13T18:04:34.061Z,42.20
2018-12-13T18:07:03.179Z,39.90
2018-12-13T18:09:33.235Z,38.35
2018-12-13T18:12:02.683Z,40.98
2018-12-13T18:14:31.797Z,42.13
2018-12-13T18:17:00.986Z,40.73
2018-12-13T18:19:29.706Z,39.42
2018-12-13T18:21:59.720Z,38.20
2018-12-13T18:24:30.766Z,37.93
2018-12-13T18:27:00.412Z,39.48
2018-12-13T18:29:29.090Z,38.70
2018-12-13T18:31:58.490Z,38.45
2018-12-13T18:34:29.168Z,42.27
2018-12-13T18:36:58.741Z,36.80
2018-12-13T18:39:27.840Z,37.23
2018-12-13T18:41:56.745Z,36.85
2018-12-13T18:44:26.382Z,33.60
2018-12-13T18:46:55.926Z,36.65
2018-12-13T18:49:24.748Z,33.33
2018-12-13T18:51:54.537Z,35.30
2018-12-13T18:54:23.059Z,38.08
2018-12-13T18:56:52.969Z,36.75
2018-12-13T18:59:21.689Z,37.05
2018-12-13T19:01:52.121Z,33.33
2018-12-13T19:04:21.061Z,33.13
2018-12-13T19:06:50.762Z,32.48
2018-12-13T19:09:20.659Z,30.40
2018-12-13T19:11:49.385Z,33.10
2018-12-13T19:14:19.220Z,31.70
2018-12-13T19:16:48.983Z,32.63
2018-12-13T19:19:18.397Z,31.52
2018-12-13T19:21:48.668Z,31.85
2018-12-13T19:24:17.861Z,38.53
2018-12-13T19:26:47.450Z,29.77
2018-12-13T19:29:16.332Z,31.17
2018-12-13T19:31:45.879Z,32.25
2018-12-13T19:34:16.198Z,31.45
2018-12-13T19:36:45.132Z,33.67
2018-12-13T19:39:17.162Z,33.83
2018-12-13T19:41:46.491Z,33.95
2018-12-13T19:44:15.074Z,33.98
2018-12-13T19:46:44.758Z,31.95
2018-12-13T19:49:14.645Z,33.83
2018-12-13T19:51:43.936Z,33.85
2018-12-13T19:54:14.435Z,32.88
2018-12-13T19:56:44.076Z,33.58
2018-12-13T19:59:13.517Z,31.62
2018-12-13T20:01:42.853Z,32.23
2018-12-13T20:04:13.622Z,34.27
2018-12-13T20:06:42.669Z,35.15
2018-12-13T20:09:12.430Z,36.65
2018-12-13T20:11:42.803Z,34.00
2018-12-13T20:14:13.077Z,37.98
2018-12-13T20:16:42.375Z,38.75
2018-12-13T20:19:12.412Z,37.85
2018-12-13T20:21:41.723Z,37.53
2018-12-13T20:24:11.502Z,37.28
2018-12-13T20:26:40.587Z,40.50
2018-12-13T20:29:09.903Z,37.53
2018-12-13T20:31:38.897Z,35.63
2018-12-13T20:34:09.123Z,39.55
2018-12-13T20:36:38.441Z,40.80
2018-12-13T20:39:09.058Z,36.35
2018-12-13T20:41:38.443Z,37.88
2018-12-13T20:44:07.951Z,36.63
2018-12-13T20:46:37.592Z,37.38
2018-12-13T20:49:07.108Z,38.55
2018-12-13T20:51:43.598Z,39.90
2018-12-13T20:54:13.701Z,39.50
2018-12-13T20:56:42.593Z,36.85
2018-12-13T20:59:11.739Z,39.18
2018-12-13T21:01:40.948Z,38.55
2018-12-13T21:04:10.462Z,35.68
2018-12-13T21:06:40.073Z,36.93
2018-12-13T21:09:08.817Z,36.53
2018-12-13T21:11:38.178Z,34.90
2018-12-13T21:14:06.854Z,33.65
2018-12-13T21:16:35.656Z,33.38
2018-12-13T21:19:05.239Z,32.67
2018-12-13T21:21:34.376Z,32.35
2018-12-13T21:24:03.853Z,32.45
2018-12-13T21:26:32.548Z,30.20
2018-12-13T21:29:01.360Z,32.10
2018-12-13T21:31:31.153Z,33.95
2018-12-13T21:34:00.289Z,31.42
2018-12-13T21:36:30.449Z,33.53
2018-12-13T21:39:00.148Z,30.77
2018-12-13T21:41:30.578Z,34.05
2018-12-13T21:43:59.953Z,30.70
2018-12-13T21:46:30.358Z,30.35
2018-12-13T21:49:00.511Z,28.42
2018-12-13T21:51:30.302Z,28.80
2018-12-13T21:53:59.298Z,33.85
2018-12-13T21:56:28.287Z,30.37
2018-12-13T21:59:03.520Z,31.45
2018-12-13T22:01:28.970Z,30.60
2018-12-13T22:03:58.540Z,28.62
2018-12-13T22:06:27.973Z,27.45
2018-12-13T22:08:57.630Z,28.17
2018-12-13T22:11:26.470Z,27.20
2018-12-13T22:13:55.199Z,28.90
2018-12-13T22:16:25.646Z,27.67
2018-12-13T22:18:54.959Z,27.52
2018-12-13T22:21:24.002Z,26.30
2018-12-13T22:23:53.150Z,29.32
2018-12-13T22:26:22.268Z,28.12
2018-12-13T22:28:52.615Z,27.85
2018-12-13T22:31:22.399Z,28.05
2018-12-13T22:33:51.496Z,26.37
2018-12-13T22:36:22.320Z,26.42
2018-12-13T22:38:52.032Z,28.60
2018-12-13T22:41:26.379Z,26.68
2018-12-13T22:43:53.827Z,29.10
2018-12-13T22:46:23.980Z,30.40
2018-12-13T22:48:53.991Z,33.55
2018-12-13T22:51:22.833Z,29.70
2018-12-13T22:53:54.059Z,31.12
2018-12-13T22:56:23.419Z,32.45
2018-12-13T22:58:53.589Z,30.08
2018-12-13T23:01:23.636Z,34.00
2018-12-13T23:03:53.904Z,31.30
2018-12-13T23:06:24.109Z,31.20
2018-12-13T23:08:53.960Z,30.52
2018-12-13T23:11:23.226Z,31.55
2018-12-13T23:13:53.089Z,29.37
2018-12-13T23:16:23.108Z,32.33
2018-12-13T23:18:53.541Z,28.27
2018-12-13T23:21:23.538Z,31.07
2018-12-13T23:23:53.210Z,29.90
2018-12-13T23:26:22.446Z,30.80
2018-12-13T23:28:52.614Z,31.48
2018-12-13T23:31:21.495Z,30.00
2018-12-13T23:33:51.471Z,27.87
2018-12-13T23:36:21.028Z,32.13
2018-12-13T23:38:50.164Z,34.40
2018-12-13T23:41:21.835Z,27.07
2018-12-13T23:43:51.948Z,29.35
2018-12-13T23:46:21.618Z,32.35
2018-12-13T23:48:51.841Z,35.73
2018-12-13T23:51:21.726Z,34.25
2018-12-13T23:53:52.143Z,36.45
2018-12-13T23:56:21.758Z,37.13
2018-12-13T23:58:51.963Z,39.63
